sensor_id;sensor_type;location;lat;lon;timestamp;temperature;humidity
1413;DHT22;701;52.526;13.408;2023-03-31T00:00:56;12.10;33.10
1413;DHT22;701;52.526;13.408;2023-03-31T00:03:22;12.10;33.10
1413;DHT22;701;52.526;13.408;2023-03-31T00:05:57;12.10;33.10
1413;DHT22;701;52.526;13.408;2023-03-31T00:08:24;12.10;33.10
1413;DHT22;701;52.526;13.408;2023-03-31T00:10:50;12.20;33.10
1413;DHT22;701;52.526;13.408;2023-03-31T00:13:16;12.10;32.90
1413;DHT22;701;52.526;13.408;2023-03-31T00:15:42;12.20;33.10
1413;DHT22;701;52.526;13.408;2023-03-31T00:18:08;12.10;32.60
1413;DHT22;701;52.526;13.408;2023-03-31T00:20:33;12.10;32.50
1413;DHT22;701;52.526;13.408;2023-03-31T00:23:03;12.10;32.10
1413;DHT22;701;52.526;13.408;2023-03-31T00:25:38;12.20;32.10
1413;DHT22;701;52.526;13.408;2023-03-31T00:28:05;12.20;32.10
1413;DHT22;701;52.526;13.408;2023-03-31T00:30:30;12.20;31.90
1413;DHT22;701;52.526;13.408;2023-03-31T00:32:59;12.20;31.80
1413;DHT22;701;52.526;13.408;2023-03-31T00:35:25;12.20;31.80
1413;DHT22;701;52.526;13.408;2023-03-31T00:37:50;12.20;31.70
1413;DHT22;701;52.526;13.408;2023-03-31T00:40:18;12.20;31.60
1413;DHT22;701;52.526;13.408;2023-03-31T00:42:44;12.20;31.60
1413;DHT22;701;52.526;13.408;2023-03-31T00:47:45;12.20;31.30
1413;DHT22;701;52.526;13.408;2023-03-31T00:50:33;12.20;31.10
1413;DHT22;701;52.526;13.408;2023-03-31T00:53:25;12.20;30.80
1413;DHT22;701;52.526;13.408;2023-03-31T00:55:56;12.10;30.90
1413;DHT22;701;52.526;13.408;2023-03-31T00:58:23;12.10;30.90
1413;DHT22;701;52.526;13.408;2023-03-31T01:00:55;12.10;30.90
1413;DHT22;701;52.526;13.408;2023-03-31T01:03:22;12.00;31.00
1413;DHT22;701;52.526;13.408;2023-03-31T01:05:52;12.00;31.10
1413;DHT22;701;52.526;13.408;2023-03-31T01:08:21;11.90;31.30
1413;DHT22;701;52.526;13.408;2023-03-31T01:11:02;11.90;31.40
1413;DHT22;701;52.526;13.408;2023-03-31T01:13:29;11.90;31.50
1413;DHT22;701;52.526;13.408;2023-03-31T01:15:56;11.80;31.30
1413;DHT22;701;52.526;13.408;2023-03-31T01:18:26;11.80;31.40
1413;DHT22;701;52.526;13.408;2023-03-31T01:21:23;11.70;31.50
1413;DHT22;701;52.526;13.408;2023-03-31T01:26:52;11.50;31.80
1413;DHT22;701;52.526;13.408;2023-03-31T01:43:04;10.90;33.40
1413;DHT22;701;52.526;13.408;2023-03-31T01:56:36;10.80;35.10
1413;DHT22;701;52.526;13.408;2023-03-31T02:01:36;10.70;35.30
1413;DHT22;701;52.526;13.408;2023-03-31T02:04:19;10.70;35.50
1413;DHT22;701;52.526;13.408;2023-03-31T02:06:56;10.70;35.50
1413;DHT22;701;52.526;13.408;2023-03-31T02:09:34;10.80;35.80
1413;DHT22;701;52.526;13.408;2023-03-31T02:12:03;10.80;35.90
1413;DHT22;701;52.526;13.408;2023-03-31T02:14:31;10.80;35.70
1413;DHT22;701;52.526;13.408;2023-03-31T02:16:58;10.80;35.50
1413;DHT22;701;52.526;13.408;2023-03-31T02:19:38;10.90;35.50
1413;DHT22;701;52.526;13.408;2023-03-31T02:22:07;10.90;35.40
1413;DHT22;701;52.526;13.408;2023-03-31T02:24:35;11.00;35.40
1413;DHT22;701;52.526;13.408;2023-03-31T02:27:22;11.00;35.20
1413;DHT22;701;52.526;13.408;2023-03-31T02:29:49;11.00;35.10
1413;DHT22;701;52.526;13.408;2023-03-31T02:32:31;11.00;35.00
1413;DHT22;701;52.526;13.408;2023-03-31T02:35:00;11.00;35.00
1413;DHT22;701;52.526;13.408;2023-03-31T02:37:27;11.10;34.90
1413;DHT22;701;52.526;13.408;2023-03-31T02:39:56;11.20;34.80
1413;DHT22;701;52.526;13.408;2023-03-31T02:42:23;11.20;34.60
1413;DHT22;701;52.526;13.408;2023-03-31T02:44:50;11.30;34.60
1413;DHT22;701;52.526;13.408;2023-03-31T02:47:18;11.30;34.30
1413;DHT22;701;52.526;13.408;2023-03-31T02:49:50;11.40;34.10
1413;DHT22;701;52.526;13.408;2023-03-31T02:53:08;11.40;34.00
1413;DHT22;701;52.526;13.408;2023-03-31T03:09:02;11.60;32.70
1413;DHT22;701;52.526;13.408;2023-03-31T03:14:23;11.60;33.30
1413;DHT22;701;52.526;13.408;2023-03-31T03:16:58;11.60;32.60
1413;DHT22;701;52.526;13.408;2023-03-31T03:19:25;11.60;32.70
1413;DHT22;701;52.526;13.408;2023-03-31T03:21:51;11.70;32.80
1413;DHT22;701;52.526;13.408;2023-03-31T03:24:17;11.70;32.80
1413;DHT22;701;52.526;13.408;2023-03-31T03:26:44;11.70;32.70
1413;DHT22;701;52.526;13.408;2023-03-31T03:29:11;11.70;32.70
1413;DHT22;701;52.526;13.408;2023-03-31T03:31:41;11.70;32.80
1413;DHT22;701;52.526;13.408;2023-03-31T03:34:06;11.70;32.70
1413;DHT22;701;52.526;13.408;2023-03-31T03:36:35;11.70;32.70
1413;DHT22;701;52.526;13.408;2023-03-31T03:39:03;11.80;32.50
1413;DHT22;701;52.526;13.408;2023-03-31T03:41:29;11.80;32.40
1413;DHT22;701;52.526;13.408;2023-03-31T03:43:55;11.80;32.30
1413;DHT22;701;52.526;13.408;2023-03-31T03:46:21;11.80;32.20
1413;DHT22;701;52.526;13.408;2023-03-31T03:48:47;11.90;32.10
1413;DHT22;701;52.526;13.408;2023-03-31T03:51:12;11.90;32.10
1413;DHT22;701;52.526;13.408;2023-03-31T03:53:38;11.90;32.10
1413;DHT22;701;52.526;13.408;2023-03-31T03:56:04;11.90;32.10
1413;DHT22;701;52.526;13.408;2023-03-31T03:58:30;11.90;32.00
1413;DHT22;701;52.526;13.408;2023-03-31T04:00:56;12.00;32.00
1413;DHT22;701;52.526;13.408;2023-03-31T04:03:22;12.00;32.00
1413;DHT22;701;52.526;13.408;2023-03-31T04:05:47;12.00;31.90
1413;DHT22;701;52.526;13.408;2023-03-31T04:08:14;12.00;31.90
1413;DHT22;701;52.526;13.408;2023-03-31T04:10:44;12.00;32.60
1413;DHT22;701;52.526;13.408;2023-03-31T04:13:11;12.00;32.00
1413;DHT22;701;52.526;13.408;2023-03-31T04:15:37;12.00;32.00
1413;DHT22;701;52.526;13.408;2023-03-31T04:18:03;12.00;32.00
1413;DHT22;701;52.526;13.408;2023-03-31T04:20:28;11.90;31.90
1413;DHT22;701;52.526;13.408;2023-03-31T04:22:55;12.00;32.00
1413;DHT22;701;52.526;13.408;2023-03-31T04:25:21;12.00;32.10
1413;DHT22;701;52.526;13.408;2023-03-31T04:27:49;11.90;32.00
1413;DHT22;701;52.526;13.408;2023-03-31T04:30:16;12.00;32.20
1413;DHT22;701;52.526;13.408;2023-03-31T04:32:53;11.90;32.20
1413;DHT22;701;52.526;13.408;2023-03-31T04:35:20;11.90;32.20
1413;DHT22;701;52.526;13.408;2023-03-31T04:37:48;11.80;32.20
1413;DHT22;701;52.526;13.408;2023-03-31T04:40:14;11.80;32.70
1413;DHT22;701;52.526;13.408;2023-03-31T04:42:42;11.80;32.80
1413;DHT22;701;52.526;13.408;2023-03-31T04:45:08;11.70;32.70
1413;DHT22;701;52.526;13.408;2023-03-31T04:47:34;11.70;32.70
1413;DHT22;701;52.526;13.408;2023-03-31T04:50:00;11.70;32.70
1413;DHT22;701;52.526;13.408;2023-03-31T04:52:25;11.70;33.00
1413;DHT22;701;52.526;13.408;2023-03-31T04:54:51;11.70;33.10
1413;DHT22;701;52.526;13.408;2023-03-31T04:57:17;11.70;33.20
1413;DHT22;701;52.526;13.408;2023-03-31T04:59:43;11.70;33.20
1413;DHT22;701;52.526;13.408;2023-03-31T05:02:08;11.70;33.10
1413;DHT22;701;52.526;13.408;2023-03-31T05:04:34;11.80;33.10
1413;DHT22;701;52.526;13.408;2023-03-31T05:07:00;11.80;32.80
1413;DHT22;701;52.526;13.408;2023-03-31T05:09:26;11.80;32.80
1413;DHT22;701;52.526;13.408;2023-03-31T05:11:52;11.80;32.80
1413;DHT22;701;52.526;13.408;2023-03-31T05:14:18;11.80;32.80
1413;DHT22;701;52.526;13.408;2023-03-31T05:16:44;11.80;32.80
1413;DHT22;701;52.526;13.408;2023-03-31T05:19:10;11.80;32.80
1413;DHT22;701;52.526;13.408;2023-03-31T05:21:36;11.80;32.80
1413;DHT22;701;52.526;13.408;2023-03-31T05:24:02;11.70;32.70
1413;DHT22;701;52.526;13.408;2023-03-31T05:26:29;11.70;32.70
1413;DHT22;701;52.526;13.408;2023-03-31T05:28:55;11.60;32.60
1413;DHT22;701;52.526;13.408;2023-03-31T05:31:21;11.60;32.70
1413;DHT22;701;52.526;13.408;2023-03-31T05:33:47;11.50;32.90
1413;DHT22;701;52.526;13.408;2023-03-31T05:36:15;11.50;33.20
1413;DHT22;701;52.526;13.408;2023-03-31T05:38:42;11.50;33.40
1413;DHT22;701;52.526;13.408;2023-03-31T05:41:09;11.50;33.50
1413;DHT22;701;52.526;13.408;2023-03-31T05:43:36;11.50;33.40
1413;DHT22;701;52.526;13.408;2023-03-31T05:46:03;11.50;33.40
1413;DHT22;701;52.526;13.408;2023-03-31T05:48:29;11.60;33.50
1413;DHT22;701;52.526;13.408;2023-03-31T05:50:58;11.50;33.50
1413;DHT22;701;52.526;13.408;2023-03-31T05:53:25;11.70;33.60
1413;DHT22;701;52.526;13.408;2023-03-31T05:56:02;11.80;33.30
1413;DHT22;701;52.526;13.408;2023-03-31T05:58:29;12.10;33.10
1413;DHT22;701;52.526;13.408;2023-03-31T06:01:06;12.30;32.00
1413;DHT22;701;52.526;13.408;2023-03-31T06:03:37;12.40;31.60
1413;DHT22;701;52.526;13.408;2023-03-31T06:06:04;12.70;30.70
1413;DHT22;701;52.526;13.408;2023-03-31T06:08:31;12.90;30.10
1413;DHT22;701;52.526;13.408;2023-03-31T06:10:57;13.00;29.10
1413;DHT22;701;52.526;13.408;2023-03-31T06:13:23;13.00;29.20
1413;DHT22;701;52.526;13.408;2023-03-31T06:15:56;13.00;28.70
1413;DHT22;701;52.526;13.408;2023-03-31T06:18:23;13.00;28.60
1413;DHT22;701;52.526;13.408;2023-03-31T06:20:50;13.00;28.40
1413;DHT22;701;52.526;13.408;2023-03-31T06:23:16;13.00;28.50
1413;DHT22;701;52.526;13.408;2023-03-31T06:25:42;13.10;28.40
1413;DHT22;701;52.526;13.408;2023-03-31T06:28:08;13.20;28.00
1413;DHT22;701;52.526;13.408;2023-03-31T06:30:34;13.30;27.60
1413;DHT22;701;52.526;13.408;2023-03-31T06:33:00;13.40;27.10
1413;DHT22;701;52.526;13.408;2023-03-31T06:35:26;13.50;27.00
1413;DHT22;701;52.526;13.408;2023-03-31T06:37:52;13.50;26.40
1413;DHT22;701;52.526;13.408;2023-03-31T06:40:17;13.50;26.40
1413;DHT22;701;52.526;13.408;2023-03-31T06:42:43;13.50;26.40
1413;DHT22;701;52.526;13.408;2023-03-31T06:45:09;13.50;26.40
1413;DHT22;701;52.526;13.408;2023-03-31T06:47:36;13.60;26.50
1413;DHT22;701;52.526;13.408;2023-03-31T06:50:07;13.70;26.50
1413;DHT22;701;52.526;13.408;2023-03-31T06:52:34;13.90;25.90
1413;DHT22;701;52.526;13.408;2023-03-31T06:55:03;14.10;25.30
1413;DHT22;701;52.526;13.408;2023-03-31T06:57:29;14.20;24.80
1413;DHT22;701;52.526;13.408;2023-03-31T06:59:57;14.30;24.60
1413;DHT22;701;52.526;13.408;2023-03-31T07:02:23;14.20;24.20
1413;DHT22;701;52.526;13.408;2023-03-31T07:04:49;14.10;23.90
1413;DHT22;701;52.526;13.408;2023-03-31T07:07:14;14.00;24.30
1413;DHT22;701;52.526;13.408;2023-03-31T07:09:41;13.90;24.50
1413;DHT22;701;52.526;13.408;2023-03-31T07:12:06;13.90;24.70
1413;DHT22;701;52.526;13.408;2023-03-31T07:14:32;14.00;24.90
1413;DHT22;701;52.526;13.408;2023-03-31T07:16:58;14.10;24.50
1413;DHT22;701;52.526;13.408;2023-03-31T07:19:24;14.20;24.40
1413;DHT22;701;52.526;13.408;2023-03-31T07:21:50;14.40;24.00
1413;DHT22;701;52.526;13.408;2023-03-31T07:24:16;14.60;23.60
1413;DHT22;701;52.526;13.408;2023-03-31T07:26:42;14.80;23.30
1413;DHT22;701;52.526;13.408;2023-03-31T07:29:08;15.00;23.10
1413;DHT22;701;52.526;13.408;2023-03-31T07:31:34;15.10;22.10
1413;DHT22;701;52.526;13.408;2023-03-31T07:34:03;15.30;21.70
1413;DHT22;701;52.526;13.408;2023-03-31T07:36:30;15.50;21.50
1413;DHT22;701;52.526;13.408;2023-03-31T07:38:56;15.60;20.80
1413;DHT22;701;52.526;13.408;2023-03-31T07:41:22;15.80;20.80
1413;DHT22;701;52.526;13.408;2023-03-31T07:43:49;16.00;20.50
1413;DHT22;701;52.526;13.408;2023-03-31T07:46:20;16.10;19.90
1413;DHT22;701;52.526;13.408;2023-03-31T07:48:48;16.30;19.60
1413;DHT22;701;52.526;13.408;2023-03-31T07:51:16;16.40;19.00
1413;DHT22;701;52.526;13.408;2023-03-31T07:53:42;16.40;18.40
1413;DHT22;701;52.526;13.408;2023-03-31T07:56:08;16.40;18.40
1413;DHT22;701;52.526;13.408;2023-03-31T07:58:34;16.40;18.40
1413;DHT22;701;52.526;13.408;2023-03-31T08:01:00;16.40;18.20
1413;DHT22;701;52.526;13.408;2023-03-31T08:03:26;16.50;18.00
1413;DHT22;701;52.526;13.408;2023-03-31T08:05:53;16.60;17.70
1413;DHT22;701;52.526;13.408;2023-03-31T08:08:19;16.70;17.60
1413;DHT22;701;52.526;13.408;2023-03-31T08:10:46;16.90;17.50
1413;DHT22;701;52.526;13.408;2023-03-31T08:13:12;17.10;17.20
1413;DHT22;701;52.526;13.408;2023-03-31T08:15:38;17.30;16.80
1413;DHT22;701;52.526;13.408;2023-03-31T08:18:04;17.50;16.20
1413;DHT22;701;52.526;13.408;2023-03-31T08:20:30;17.70;15.60
1413;DHT22;701;52.526;13.408;2023-03-31T08:22:56;17.80;15.30
1413;DHT22;701;52.526;13.408;2023-03-31T08:25:22;18.00;14.80
1413;DHT22;701;52.526;13.408;2023-03-31T08:27:48;18.20;14.90
1413;DHT22;701;52.526;13.408;2023-03-31T08:30:17;18.30;14.40
1413;DHT22;701;52.526;13.408;2023-03-31T08:32:43;18.50;14.20
1413;DHT22;701;52.526;13.408;2023-03-31T08:35:09;18.80;13.80
1413;DHT22;701;52.526;13.408;2023-03-31T08:37:36;19.00;13.00
1413;DHT22;701;52.526;13.408;2023-03-31T08:40:04;19.20;12.60
1413;DHT22;701;52.526;13.408;2023-03-31T08:42:42;19.30;12.40
1413;DHT22;701;52.526;13.408;2023-03-31T08:47:42;19.80;11.40
1413;DHT22;701;52.526;13.408;2023-03-31T08:50:16;20.00;11.00
1413;DHT22;701;52.526;13.408;2023-03-31T08:52:55;20.30;10.10
1413;DHT22;701;52.526;13.408;2023-03-31T08:55:28;20.80;9.50
1413;DHT22;701;52.526;13.408;2023-03-31T08:58:10;21.70;8.70
1413;DHT22;701;52.526;13.408;2023-03-31T09:00:45;22.30;6.40
1413;DHT22;701;52.526;13.408;2023-03-31T09:06:07;22.10;6.00
1413;DHT22;701;52.526;13.408;2023-03-31T09:08:40;21.90;6.70
1413;DHT22;701;52.526;13.408;2023-03-31T09:16:32;21.70;6.90
1413;DHT22;701;52.526;13.408;2023-03-31T09:19:01;21.80;6.50
1413;DHT22;701;52.526;13.408;2023-03-31T09:21:34;21.90;7.00
1413;DHT22;701;52.526;13.408;2023-03-31T09:26:44;22.20;6.00
1413;DHT22;701;52.526;13.408;2023-03-31T09:29:54;22.80;5.50
1413;DHT22;701;52.526;13.408;2023-03-31T09:32:27;23.70;3.80
1413;DHT22;701;52.526;13.408;2023-03-31T09:35:16;24.70;2.80
1413;DHT22;701;52.526;13.408;2023-03-31T09:37:43;25.00;2.00
1413;DHT22;701;52.526;13.408;2023-03-31T09:40:20;24.70;1.80
1413;DHT22;701;52.526;13.408;2023-03-31T09:43:33;24.30;1.50
1413;DHT22;701;52.526;13.408;2023-03-31T09:45:35;23.80;2.00
1413;DHT22;701;52.526;13.408;2023-03-31T09:48:04;23.50;2.80
1413;DHT22;701;52.526;13.408;2023-03-31T09:50:38;23.10;2.60
1413;DHT22;701;52.526;13.408;2023-03-31T09:53:15;22.80;3.10
1413;DHT22;701;52.526;13.408;2023-03-31T09:55:45;22.40;3.60
1413;DHT22;701;52.526;13.408;2023-03-31T09:58:14;22.00;4.30
1413;DHT22;701;52.526;13.408;2023-03-31T10:01:00;21.60;5.20
1413;DHT22;701;52.526;13.408;2023-03-31T10:03:27;21.30;5.40
1413;DHT22;701;52.526;13.408;2023-03-31T10:05:57;21.20;5.70
1413;DHT22;701;52.526;13.408;2023-03-31T10:08:46;21.00;6.00
1413;DHT22;701;52.526;13.408;2023-03-31T10:11:13;20.70;6.30
1413;DHT22;701;52.526;13.408;2023-03-31T10:13:46;20.50;6.70
1413;DHT22;701;52.526;13.408;2023-03-31T10:16:20;20.30;7.10
1413;DHT22;701;52.526;13.408;2023-03-31T10:18:47;20.10;7.30
1413;DHT22;701;52.526;13.408;2023-03-31T10:21:35;19.80;7.60
1413;DHT22;701;52.526;13.408;2023-03-31T10:24:08;19.50;8.10
1413;DHT22;701;52.526;13.408;2023-03-31T10:26:34;19.30;8.30
1413;DHT22;701;52.526;13.408;2023-03-31T10:29:00;19.10;8.90
1413;DHT22;701;52.526;13.408;2023-03-31T10:31:33;18.90;9.60
1413;DHT22;701;52.526;13.408;2023-03-31T10:34:05;18.80;10.10
1413;DHT22;701;52.526;13.408;2023-03-31T10:36:31;18.70;10.10
1413;DHT22;701;52.526;13.408;2023-03-31T10:38:57;18.60;10.30
1413;DHT22;701;52.526;13.408;2023-03-31T10:41:26;18.70;10.60
1413;DHT22;701;52.526;13.408;2023-03-31T10:43:57;18.70;10.70
1413;DHT22;701;52.526;13.408;2023-03-31T10:46:40;18.60;10.60
1413;DHT22;701;52.526;13.408;2023-03-31T10:49:24;18.60;10.60
1413;DHT22;701;52.526;13.408;2023-03-31T10:51:58;18.70;10.60
1413;DHT22;701;52.526;13.408;2023-03-31T10:54:25;18.80;10.60
1413;DHT22;701;52.526;13.408;2023-03-31T10:57:01;18.80;10.60
1413;DHT22;701;52.526;13.408;2023-03-31T11:07:40;18.90;11.60
1413;DHT22;701;52.526;13.408;2023-03-31T11:10:15;18.80;11.90
1413;DHT22;701;52.526;13.408;2023-03-31T11:14:07;18.70;12.20
1413;DHT22;701;52.526;13.408;2023-03-31T11:21:12;19.10;12.70
1413;DHT22;701;52.526;13.408;2023-03-31T11:26:32;19.30;12.50
1413;DHT22;701;52.526;13.408;2023-03-31T11:37:35;20.00;10.90
1413;DHT22;701;52.526;13.408;2023-03-31T11:42:57;20.10;9.80
1413;DHT22;701;52.526;13.408;2023-03-31T11:48:37;20.20;10.20
1413;DHT22;701;52.526;13.408;2023-03-31T11:51:08;20.10;10.20
1413;DHT22;701;52.526;13.408;2023-03-31T11:53:37;20.10;10.40
1413;DHT22;701;52.526;13.408;2023-03-31T11:56:07;20.00;9.90
1413;DHT22;701;52.526;13.408;2023-03-31T11:58:48;19.90;10.10
1413;DHT22;701;52.526;13.408;2023-03-31T12:01:38;19.90;9.80
1413;DHT22;701;52.526;13.408;2023-03-31T12:07:01;20.10;9.70
1413;DHT22;701;52.526;13.408;2023-03-31T12:12:21;20.10;9.40
1413;DHT22;701;52.526;13.408;2023-03-31T12:14:56;20.00;9.80
1413;DHT22;701;52.526;13.408;2023-03-31T12:17:26;19.80;10.70
1413;DHT22;701;52.526;13.408;2023-03-31T12:19:56;19.40;12.00
1413;DHT22;701;52.526;13.408;2023-03-31T12:24:52;18.50;13.80
1413;DHT22;701;52.526;13.408;2023-03-31T12:27:35;18.40;14.80
1413;DHT22;701;52.526;13.408;2023-03-31T12:30:09;18.30;15.00
1413;DHT22;701;52.526;13.408;2023-03-31T12:32:46;18.30;15.50
1413;DHT22;701;52.526;13.408;2023-03-31T12:35:27;18.40;15.60
1413;DHT22;701;52.526;13.408;2023-03-31T12:43:58;18.90;14.00
1413;DHT22;701;52.526;13.408;2023-03-31T12:52:10;18.80;11.50
1413;DHT22;701;52.526;13.408;2023-03-31T12:57:34;18.20;11.10
1413;DHT22;701;52.526;13.408;2023-03-31T13:00:25;17.90;12.10
1413;DHT22;701;52.526;13.408;2023-03-31T13:05:58;17.10;14.50
1413;DHT22;701;52.526;13.408;2023-03-31T13:11:15;16.50;17.00
1413;DHT22;701;52.526;13.408;2023-03-31T13:16:44;16.10;18.80
1413;DHT22;701;52.526;13.408;2023-03-31T13:19:30;15.90;19.20
1413;DHT22;701;52.526;13.408;2023-03-31T13:21:58;15.70;21.20
1413;DHT22;701;52.526;13.408;2023-03-31T13:24:25;15.60;20.60
1413;DHT22;701;52.526;13.408;2023-03-31T13:26:53;15.50;22.20
1413;DHT22;701;52.526;13.408;2023-03-31T13:29:23;15.40;22.50
1413;DHT22;701;52.526;13.408;2023-03-31T13:34:34;15.10;24.40
1413;DHT22;701;52.526;13.408;2023-03-31T13:45:53;14.50;27.10
1413;DHT22;701;52.526;13.408;2023-03-31T14:00:01;14.00;29.50
1413;DHT22;701;52.526;13.408;2023-03-31T14:03:05;13.90;30.90
1413;DHT22;701;52.526;13.408;2023-03-31T14:08:41;13.60;32.10
1413;DHT22;701;52.526;13.408;2023-03-31T14:13:41;13.50;32.30
1413;DHT22;701;52.526;13.408;2023-03-31T14:16:07;13.40;31.10
1413;DHT22;701;52.526;13.408;2023-03-31T14:18:37;13.40;30.80
1413;DHT22;701;52.526;13.408;2023-03-31T14:26:49;13.40;30.30
1413;DHT22;701;52.526;13.408;2023-03-31T14:32:39;13.40;29.70
1413;DHT22;701;52.526;13.408;2023-03-31T14:37:55;13.40;29.90
1413;DHT22;701;52.526;13.408;2023-03-31T14:40:21;13.50;29.70
1413;DHT22;701;52.526;13.408;2023-03-31T14:42:48;13.50;29.50
1413;DHT22;701;52.526;13.408;2023-03-31T14:45:21;13.50;29.40
1413;DHT22;701;52.526;13.408;2023-03-31T14:47:56;13.50;29.60
1413;DHT22;701;52.526;13.408;2023-03-31T14:50:29;13.50;29.60
1413;DHT22;701;52.526;13.408;2023-03-31T14:52:56;13.50;29.20
1413;DHT22;701;52.526;13.408;2023-03-31T14:55:25;13.50;29.30
1413;DHT22;701;52.526;13.408;2023-03-31T14:57:54;13.50;29.10
1413;DHT22;701;52.526;13.408;2023-03-31T15:00:30;13.50;29.10
1413;DHT22;701;52.526;13.408;2023-03-31T15:02:58;13.40;29.20
1413;DHT22;701;52.526;13.408;2023-03-31T15:05:32;13.40;29.20
1413;DHT22;701;52.526;13.408;2023-03-31T15:08:09;13.40;29.50
1413;DHT22;701;52.526;13.408;2023-03-31T15:10:39;13.40;29.50
1413;DHT22;701;52.526;13.408;2023-03-31T15:13:14;13.40;29.40
1413;DHT22;701;52.526;13.408;2023-03-31T15:15:41;13.30;29.60
1413;DHT22;701;52.526;13.408;2023-03-31T15:18:11;13.30;29.70
1413;DHT22;701;52.526;13.408;2023-03-31T15:20:40;13.30;29.80
1413;DHT22;701;52.526;13.408;2023-03-31T15:23:22;13.20;29.70
1413;DHT22;701;52.526;13.408;2023-03-31T15:25:58;13.20;29.70
1413;DHT22;701;52.526;13.408;2023-03-31T15:28:36;13.20;29.70
1413;DHT22;701;52.526;13.408;2023-03-31T15:31:04;13.20;29.70
1413;DHT22;701;52.526;13.408;2023-03-31T15:33:34;13.20;30.20
1413;DHT22;701;52.526;13.408;2023-03-31T15:36:02;13.20;29.90
1413;DHT22;701;52.526;13.408;2023-03-31T15:38:28;13.20;30.00
1413;DHT22;701;52.526;13.408;2023-03-31T15:40:57;13.20;29.90
1413;DHT22;701;52.526;13.408;2023-03-31T15:43:31;13.20;29.90
1413;DHT22;701;52.526;13.408;2023-03-31T15:46:10;13.20;30.00
1413;DHT22;701;52.526;13.408;2023-03-31T15:48:53;13.20;30.10
1413;DHT22;701;52.526;13.408;2023-03-31T15:53:51;13.30;30.40
1413;DHT22;701;52.526;13.408;2023-03-31T15:56:33;13.30;30.30
1413;DHT22;701;52.526;13.408;2023-03-31T15:59:02;13.30;30.10
1413;DHT22;701;52.526;13.408;2023-03-31T16:01:32;13.30;30.00
1413;DHT22;701;52.526;13.408;2023-03-31T16:04:01;13.30;30.00
1413;DHT22;701;52.526;13.408;2023-03-31T16:09:28;13.30;30.40
1413;DHT22;701;52.526;13.408;2023-03-31T16:12:03;13.30;30.30
1413;DHT22;701;52.526;13.408;2023-03-31T16:14:57;13.30;30.20
1413;DHT22;701;52.526;13.408;2023-03-31T16:17:29;13.30;30.20
1413;DHT22;701;52.526;13.408;2023-03-31T16:20:09;13.30;30.10
1413;DHT22;701;52.526;13.408;2023-03-31T16:22:42;13.30;30.00
1413;DHT22;701;52.526;13.408;2023-03-31T16:25:15;13.30;30.20
1413;DHT22;701;52.526;13.408;2023-03-31T16:27:47;13.30;29.90
1413;DHT22;701;52.526;13.408;2023-03-31T16:30:16;13.30;29.90
1413;DHT22;701;52.526;13.408;2023-03-31T16:33:10;13.20;30.00
1413;DHT22;701;52.526;13.408;2023-03-31T16:35:44;13.20;30.10
1413;DHT22;701;52.526;13.408;2023-03-31T16:38:13;13.20;30.80
1413;DHT22;701;52.526;13.408;2023-03-31T16:40:48;13.20;30.00
1413;DHT22;701;52.526;13.408;2023-03-31T16:43:17;13.10;30.00
1413;DHT22;701;52.526;13.408;2023-03-31T16:45:54;13.10;30.00
1413;DHT22;701;52.526;13.408;2023-03-31T16:48:22;13.00;29.70
1413;DHT22;701;52.526;13.408;2023-03-31T16:50:50;13.00;30.00
1413;DHT22;701;52.526;13.408;2023-03-31T16:53:20;13.00;29.90
1413;DHT22;701;52.526;13.408;2023-03-31T16:55:46;13.00;30.10
1413;DHT22;701;52.526;13.408;2023-03-31T16:58:12;12.90;30.00
1413;DHT22;701;52.526;13.408;2023-03-31T17:00:39;12.90;30.40
1413;DHT22;701;52.526;13.408;2023-03-31T17:03:07;12.90;30.00
1413;DHT22;701;52.526;13.408;2023-03-31T17:05:40;12.80;30.10
1413;DHT22;701;52.526;13.408;2023-03-31T17:08:07;12.80;30.20
1413;DHT22;701;52.526;13.408;2023-03-31T17:10:33;12.70;30.30
1413;DHT22;701;52.526;13.408;2023-03-31T17:12:59;12.70;30.50
1413;DHT22;701;52.526;13.408;2023-03-31T17:15:25;12.70;30.70
1413;DHT22;701;52.526;13.408;2023-03-31T17:17:54;12.60;31.00
1413;DHT22;701;52.526;13.408;2023-03-31T17:20:20;12.60;31.10
1413;DHT22;701;52.526;13.408;2023-03-31T17:22:46;12.50;31.10
1413;DHT22;701;52.526;13.408;2023-03-31T17:25:12;12.40;31.50
1413;DHT22;701;52.526;13.408;2023-03-31T17:27:38;12.40;31.40
1413;DHT22;701;52.526;13.408;2023-03-31T17:30:05;12.30;31.70
1413;DHT22;701;52.526;13.408;2023-03-31T17:32:31;12.30;32.10
1413;DHT22;701;52.526;13.408;2023-03-31T17:34:57;12.30;32.10
1413;DHT22;701;52.526;13.408;2023-03-31T17:37:23;12.30;32.20
1413;DHT22;701;52.526;13.408;2023-03-31T17:39:49;12.30;32.40
1413;DHT22;701;52.526;13.408;2023-03-31T17:42:15;12.30;32.20
1413;DHT22;701;52.526;13.408;2023-03-31T17:44:41;12.30;32.10
1413;DHT22;701;52.526;13.408;2023-03-31T17:47:07;12.30;32.00
1413;DHT22;701;52.526;13.408;2023-03-31T17:49:33;12.30;32.10
1413;DHT22;701;52.526;13.408;2023-03-31T17:51:59;12.30;32.00
1413;DHT22;701;52.526;13.408;2023-03-31T17:54:25;12.30;32.00
1413;DHT22;701;52.526;13.408;2023-03-31T17:56:51;12.30;31.90
1413;DHT22;701;52.526;13.408;2023-03-31T17:59:17;12.30;31.90
1413;DHT22;701;52.526;13.408;2023-03-31T18:01:44;12.30;32.00
1413;DHT22;701;52.526;13.408;2023-03-31T18:04:12;12.30;32.00
1413;DHT22;701;52.526;13.408;2023-03-31T18:06:41;12.30;32.00
1413;DHT22;701;52.526;13.408;2023-03-31T18:09:09;12.30;31.90
1413;DHT22;701;52.526;13.408;2023-03-31T18:11:35;12.30;32.00
1413;DHT22;701;52.526;13.408;2023-03-31T18:14:02;12.30;32.20
1413;DHT22;701;52.526;13.408;2023-03-31T18:16:29;12.30;32.20
1413;DHT22;701;52.526;13.408;2023-03-31T18:18:55;12.30;32.40
1413;DHT22;701;52.526;13.408;2023-03-31T18:21:21;12.30;32.40
1413;DHT22;701;52.526;13.408;2023-03-31T18:23:50;12.30;32.50
1413;DHT22;701;52.526;13.408;2023-03-31T18:26:22;12.30;32.70
1413;DHT22;701;52.526;13.408;2023-03-31T18:28:48;12.30;33.00
1413;DHT22;701;52.526;13.408;2023-03-31T18:31:14;12.30;32.90
1413;DHT22;701;52.526;13.408;2023-03-31T18:33:41;12.30;33.20
1413;DHT22;701;52.526;13.408;2023-03-31T18:36:08;12.30;33.20
1413;DHT22;701;52.526;13.408;2023-03-31T18:38:37;12.30;33.20
1413;DHT22;701;52.526;13.408;2023-03-31T18:41:03;12.30;33.20
1413;DHT22;701;52.526;13.408;2023-03-31T18:43:29;12.30;33.20
1413;DHT22;701;52.526;13.408;2023-03-31T18:45:55;12.30;33.20
1413;DHT22;701;52.526;13.408;2023-03-31T18:48:23;12.30;33.20
1413;DHT22;701;52.526;13.408;2023-03-31T18:50:50;12.30;33.20
1413;DHT22;701;52.526;13.408;2023-03-31T18:53:18;12.30;33.30
1413;DHT22;701;52.526;13.408;2023-03-31T18:55:48;12.30;33.20
1413;DHT22;701;52.526;13.408;2023-03-31T18:58:14;12.30;33.20
1413;DHT22;701;52.526;13.408;2023-03-31T19:00:40;12.30;33.20
1413;DHT22;701;52.526;13.408;2023-03-31T19:03:06;12.30;33.20
1413;DHT22;701;52.526;13.408;2023-03-31T19:05:32;12.30;33.20
1413;DHT22;701;52.526;13.408;2023-03-31T19:07:58;12.30;33.20
1413;DHT22;701;52.526;13.408;2023-03-31T19:10:26;12.30;33.20